Time;durP1;ratioP1;P1;durP2;ratioP2;P2;SDS_P1;SDS_P2;PMS_P1;PMS_P2;Temp;Humidity;BMP_temperature;BMP_pressure;BME280_temperature;BME280_humidity;BME280_pressure;Samples;Min_cycle;Max_cycle;Signal;HPM_P1;HPM_P2
2024/01/01 00:00:23;;;;;;;;;;;;;;;;;;6295161;28;19924;-76
2024/01/01 00:03:23;;;;;;;;;;;;;;;;;;6285145;28;19930;-77
2024/01/01 00:06:25;;;;;;;;;;;;;;;;;;6296595;28;19918;-78
2024/01/01 00:09:25;;;;;;;;;;;;;;;;;;6302164;28;19920;-79
2024/01/01 00:12:25;;;;;;;;;;;;;;;;;;6285545;28;19919;-77
2024/01/01 00:15:25;;;;;;;;;;;;;;;;;;6290403;28;19916;-77
2024/01/01 00:18:26;;;;;;;;;;;;;;;;;;6297915;28;21371;-76
2024/01/01 00:21:26;;;;;;;;;;;;;;;;;;6293053;28;19959;-76
2024/01/01 00:24:26;;;;;;;;;;;;;;;;;;6275414;28;19920;-77
2024/01/01 00:27:27;;;;;;;;;;;;;;;;;;6287086;28;19990;-77
2024/01/01 00:30:27;;;;;;;;;;;;;;;;;;6287820;28;20585;-77
2024/01/01 00:33:27;;;;;;;;;;;;;;;;;;6293671;28;19971;-78
2024/01/01 00:36:28;;;;;;;;;;;;;;;;;;6297354;28;19959;-77
2024/01/01 00:39:29;;;;;;;;;;;;;;;;;;6298741;28;19912;-79
2024/01/01 00:42:29;;;;;;;;;;;;;;;;;;6287654;28;20280;-78
2024/01/01 00:45:30;;;;;;;;;;;;;;;;;;6303641;28;19920;-78
2024/01/01 00:48:30;;;;;;;;;;;;;;;;;;6281091;28;19921;-78
2024/01/01 00:51:30;;;;;;;;;;;;;;;;;;6297404;28;19913;-79
2024/01/01 00:54:30;;;;;;;;;;;;;;;;;;6295099;28;19958;-80
2024/01/01 00:57:30;;;;;;;;;;;;;;;;;;6283042;28;19913;-84
2024/01/01 01:00:30;;;;;;;;;;;;;;;;;;6296015;28;19912;-78
2024/01/01 01:03:31;;;;;;;;;;;;;;;;;;6308387;28;19918;-78
2024/01/01 01:06:31;;;;;;;;;;;;;;;;;;6296127;28;20266;-79
2024/01/01 01:09:31;;;;;;;;;;;;;;;;;;6295708;28;20027;-79
2024/01/01 01:12:31;;;;;;;;;;;;;;;;;;6285081;28;19959;-79
2024/01/01 01:15:31;;;;;;;;;;;;;;;;;;6281435;28;19920;-79
2024/01/01 01:18:32;;;;;;;;;;;;;;;;;;6299247;28;19913;-79
2024/01/01 01:21:32;;;;;;;;;;;;;;;;;;6294855;28;19913;-80
2024/01/01 01:24:32;;;;;;;;;;;;;;;;;;6293559;28;19939;-77
2024/01/01 01:27:32;;;;;;;;;;;;;;;;;;6296344;28;19920;-76
2024/01/01 01:30:32;;;;;;;;;;;;;;;;;;6278303;28;19924;-76
2024/01/01 01:33:32;;;;;;;;;;;;;;;;;;6297852;28;19912;-77
2024/01/01 01:36:32;;;;;;;;;;;;;;;;;;6302826;28;20039;-76
2024/01/01 01:39:33;;;;;;;;;;;;;;;;;;6279017;28;19926;-77
2024/01/01 01:42:33;;;;;;;;;;;;;;;;;;6286705;28;19974;-75
2024/01/01 01:45:34;;;;;;;;;;;;;;;;;;6289853;28;19920;-77
2024/01/01 01:48:34;;;;;;;;;;;;;;;;;;6295864;28;19966;-76
2024/01/01 01:51:34;;;;;;;;;;;;;;;;;;6289873;28;19942;-76
2024/01/01 01:54:34;;;;;;;;;;;;;;;;;;6288692;28;20161;-76
2024/01/01 01:57:35;;;;;;;;;;;;;;;;;;6278424;28;19912;-77
2024/01/01 02:00:35;;;;;;;;;;;;;;;;;;6290131;28;19919;-77
2024/01/01 02:03:35;;;;;;;;;;;;;;;;;;6279096;28;19917;-77
2024/01/01 02:06:35;;;;;;;;;;;;;;;;;;6294712;28;19913;-78
2024/01/01 02:09:35;;;;;;;;;;;;;;;;;;6280717;28;20376;-77
2024/01/01 02:12:35;;;;;;;;;;;;;;;;;;6287848;28;19920;-76
2024/01/01 02:15:35;;;;;;;;;;;;;;;;;;6287502;28;19916;-76
2024/01/01 02:18:36;;;;;;;;;;;;;;;;;;6279121;28;19916;-75
2024/01/01 02:21:36;;;;;;;;;;;;;;;;;;6291618;28;19920;-87
2024/01/01 02:24:36;;;;;;;;;;;;;;;;;;6270634;28;19917;-82
2024/01/01 02:27:36;;;;;;;;;;;;;;;;;;6287630;28;19924;-77
2024/01/01 02:30:36;;;;;;;;;;;;;;;;;;6285759;28;20492;-77
2024/01/01 02:33:36;;;;;;;;;;;;;;;;;;6274295;28;19921;-76
2024/01/01 02:36:37;;;;;;;;;;;;;;;;;;6284043;28;19920;-77
2024/01/01 02:39:37;;;;;;;;;;;;;;;;;;6279043;28;19927;-77
2024/01/01 02:42:37;;;;;;;;;;;;;;;;;;6284573;28;19917;-78
2024/01/01 02:45:37;;;;;;;;;;;;;;;;;;6277754;28;19920;-78
2024/01/01 02:48:37;;;;;;;;;;;;;;;;;;6284538;28;19920;-78
2024/01/01 02:51:37;;;;;;;;;;;;;;;;;;6265955;28;19913;-81
2024/01/01 02:54:37;;;;;;;;;;;;;;;;;;6287699;28;20295;-78
2024/01/01 02:57:37;;;;;;;;;;;;;;;;;;6277418;28;20300;-80
2024/01/01 03:00:38;;;;;;;;;;;;;;;;;;6275814;28;20315;-80
2024/01/01 03:03:38;;;;;;;;;;;;;;;;;;6283716;28;19920;-77
2024/01/01 03:06:38;;;;;;;;;;;;;;;;;;6277393;28;19920;-78
2024/01/01 03:09:39;;;;;;;;;;;;;;;;;;6283966;28;19932;-78
2024/01/01 03:12:39;;;;;;;;;;;;;;;;;;6281998;28;19912;-78
2024/01/01 03:15:39;;;;;;;;;;;;;;;;;;6280201;28;19917;-76
2024/01/01 03:18:39;;;;;;;;;;;;;;;;;;6283367;28;20381;-78
2024/01/01 03:21:39;;;;;;;;;;;;;;;;;;6275714;28;19913;-78
2024/01/01 03:24:40;;;;;;;;;;;;;;;;;;6288294;28;19919;-79
2024/01/01 03:27:40;;;;;;;;;;;;;;;;;;6282775;28;20377;-78
2024/01/01 03:30:40;;;;;;;;;;;;;;;;;;6280879;28;19921;-77
2024/01/01 03:33:40;;;;;;;;;;;;;;;;;;6298395;28;19958;-79
2024/01/01 03:36:40;;;;;;;;;;;;;;;;;;6303312;28;21414;-81
2024/01/01 03:39:40;;;;;;;;;;;;;;;;;;6274758;28;19913;-78
2024/01/01 03:42:40;;;;;;;;;;;;;;;;;;6284890;28;19913;-77
2024/01/01 03:45:41;;;;;;;;;;;;;;;;;;6284706;28;20451;-77
2024/01/01 03:48:41;;;;;;;;;;;;;;;;;;6280714;28;19935;-77
2024/01/01 03:51:42;;;;;;;;;;;;;;;;;;6289980;28;19912;-78
2024/01/01 03:54:42;;;;;;;;;;;;;;;;;;6277647;28;19919;-77
2024/01/01 03:57:42;;;;;;;;;;;;;;;;;;6284795;28;19912;-77
2024/01/01 04:00:42;;;;;;;;;;;;;;;;;;6264403;28;19917;-79
2024/01/01 04:03:42;;;;;;;;;;;;;;;;;;6288541;28;19951;-78
2024/01/01 04:06:42;;;;;;;;;;;;;;;;;;6270562;28;19994;-78
2024/01/01 04:09:43;;;;;;;;;;;;;;;;;;6278507;28;19925;-78
2024/01/01 04:12:43;;;;;;;;;;;;;;;;;;6285738;28;19917;-78
2024/01/01 04:15:43;;;;;;;;;;;;;;;;;;6278085;28;19924;-81
2024/01/01 04:18:43;;;;;;;;;;;;;;;;;;6286444;28;19969;-78
2024/01/01 04:21:43;;;;;;;;;;;;;;;;;;6291619;28;19916;-78
2024/01/01 04:24:43;;;;;;;;;;;;;;;;;;6289777;28;19912;-74
2024/01/01 04:27:43;;;;;;;;;;;;;;;;;;6289530;28;19924;-78
2024/01/01 04:30:43;;;;;;;;;;;;;;;;;;6277049;28;19931;-79
2024/01/01 04:33:44;;;;;;;;;;;;;;;;;;6282104;28;20471;-77
2024/01/01 04:36:44;;;;;;;;;;;;;;;;;;6281239;28;20412;-77
2024/01/01 04:39:44;;;;;;;;;;;;;;;;;;6283973;28;19997;-76
2024/01/01 04:42:44;;;;;;;;;;;;;;;;;;6287271;28;19912;-76
2024/01/01 04:45:44;;;;;;;;;;;;;;;;;;6280901;28;19916;-77
2024/01/01 04:48:44;;;;;;;;;;;;;;;;;;6287503;28;19933;-76
2024/01/01 04:51:44;;;;;;;;;;;;;;;;;;6283215;28;19920;-77
2024/01/01 04:54:45;;;;;;;;;;;;;;;;;;6283427;28;19921;-75
2024/01/01 04:57:45;;;;;;;;;;;;;;;;;;6292380;28;19961;-75
2024/01/01 05:00:45;;;;;;;;;;;;;;;;;;6289655;28;19916;-75
2024/01/01 05:03:45;;;;;;;;;;;;;;;;;;6277152;28;20372;-75
2024/01/01 05:06:45;;;;;;;;;;;;;;;;;;6283836;28;20355;-75
2024/01/01 05:09:45;;;;;;;;;;;;;;;;;;6293519;28;20329;-75
2024/01/01 05:12:45;;;;;;;;;;;;;;;;;;6285486;28;20141;-75
2024/01/01 05:15:46;;;;;;;;;;;;;;;;;;6277919;28;19916;-75
2024/01/01 05:18:46;;;;;;;;;;;;;;;;;;6283968;28;20002;-75
2024/01/01 05:21:46;;;;;;;;;;;;;;;;;;6295962;28;19920;-75
2024/01/01 05:24:46;;;;;;;;;;;;;;;;;;6286057;28;20357;-75
2024/01/01 05:27:46;;;;;;;;;;;;;;;;;;6287115;28;19931;-75
2024/01/01 05:30:46;;;;;;;;;;;;;;;;;;6284011;28;19921;-75
2024/01/01 05:33:46;;;;;;;;;;;;;;;;;;6295045;28;19917;-75
2024/01/01 05:36:47;;;;;;;;;;;;;;;;;;6290259;28;19923;-75
2024/01/01 05:39:47;;;;;;;;;;;;;;;;;;6282725;28;19927;-75
2024/01/01 05:42:47;;;;;;;;;;;;;;;;;;6292123;28;19917;-75
2024/01/01 05:45:47;;;;;;;;;;;;;;;;;;6287734;28;19943;-75
2024/01/01 05:48:47;;;;;;;;;;;;;;;;;;6288768;28;20373;-75
2024/01/01 05:51:48;;;;;;;;;;;;;;;;;;6285171;28;20313;-75
2024/01/01 05:54:48;;;;;;;;;;;;;;;;;;6288761;28;20336;-75
2024/01/01 05:57:48;;;;;;;;;;;;;;;;;;6285919;28;20357;-75
2024/01/01 06:00:48;;;;;;;;;;;;;;;;;;6277180;28;19924;-75
2024/01/01 06:03:48;;;;;;;;;;;;;;;;;;6290012;28;20285;-75
2024/01/01 06:06:49;;;;;;;;;;;;;;;;;;6284512;28;20344;-75
2024/01/01 06:09:49;;;;;;;;;;;;;;;;;;6278321;28;19999;-75
2024/01/01 06:12:49;;;;;;;;;;;;;;;;;;6292896;28;20306;-75
2024/01/01 06:15:50;;;;;;;;;;;;;;;;;;6285340;28;19923;-75
2024/01/01 06:18:50;;;;;;;;;;;;;;;;;;6283840;28;19958;-75
2024/01/01 06:21:50;;;;;;;;;;;;;;;;;;6292339;28;19919;-75
2024/01/01 06:24:50;;;;;;;;;;;;;;;;;;6288922;28;19920;-75
2024/01/01 06:27:50;;;;;;;;;;;;;;;;;;6287147;28;19967;-75
2024/01/01 06:30:51;;;;;;;;;;;;;;;;;;6282626;28;19917;-75
2024/01/01 06:33:51;;;;;;;;;;;;;;;;;;6282344;28;20054;-75
2024/01/01 06:36:51;;;;;;;;;;;;;;;;;;6280268;28;20270;-75
2024/01/01 06:39:51;;;;;;;;;;;;;;;;;;6277574;28;20269;-75
2024/01/01 06:42:51;;;;;;;;;;;;;;;;;;6286601;28;20412;-75
2024/01/01 06:45:51;;;;;;;;;;;;;;;;;;6287136;28;19917;-75
2024/01/01 06:48:51;;;;;;;;;;;;;;;;;;6282138;28;19925;-75
2024/01/01 06:51:52;;;;;;;;;;;;;;;;;;6278100;28;19913;-75
2024/01/01 06:54:52;;;;;;;;;;;;;;;;;;6281340;28;19920;-75
2024/01/01 06:57:53;;;;;;;;;;;;;;;;;;6290073;28;19912;-75
2024/01/01 07:00:53;;;;;;;;;;;;;;;;;;6282006;28;19916;-75
2024/01/01 07:03:53;;;;;;;;;;;;;;;;;;6280692;28;19971;-75
2024/01/01 07:06:53;;;;;;;;;;;;;;;;;;6280511;28;19966;-75
2024/01/01 07:09:54;;;;;;;;;;;;;;;;;;6280593;28;20293;-75
2024/01/01 07:12:54;;;;;;;;;;;;;;;;;;6284590;28;20284;-75
2024/01/01 07:15:54;;;;;;;;;;;;;;;;;;6284277;28;20425;-76
2024/01/01 07:18:55;;;;;;;;;;;;;;;;;;6284966;28;20257;-76
2024/01/01 07:21:55;;;;;;;;;;;;;;;;;;6282974;28;19921;-76
2024/01/01 07:24:55;;;;;;;;;;;;;;;;;;6261621;28;20328;-76
2024/01/01 07:27:55;;;;;;;;;;;;;;;;;;6281727;28;19928;-76
2024/01/01 07:30:57;;;;;;;;;;;;;;;;;;6293417;28;19971;-76
2024/01/01 07:33:57;;;;;;;;;;;;;;;;;;6284469;28;19912;-76
2024/01/01 07:36:57;;;;;;;;;;;;;;;;;;6286745;28;19928;-76
2024/01/01 07:39:58;;;;;;;;;;;;;;;;;;6274534;28;19919;-76
2024/01/01 07:42:59;;;;;;;;;;;;;;;;;;6279021;28;19913;-76
2024/01/01 07:45:59;;;;;;;;;;;;;;;;;;6286956;28;19916;-76
2024/01/01 07:49:02;;;;;;;;;;;;;;;;;;6281408;28;19946;-76
2024/01/01 07:52:02;;;;;;;;;;;;;;;;;;6279910;28;19962;-76
2024/01/01 07:55:03;;;;;;;;;;;;;;;;;;6281188;28;19916;-76
2024/01/01 07:58:03;;;;;;;;;;;;;;;;;;6289949;28;20372;-76
2024/01/01 08:01:03;;;;;;;;;;;;;;;;;;6282841;28;19986;-76
2024/01/01 08:04:04;;;;;;;;;;;;;;;;;;6275853;28;19916;-77
2024/01/01 08:07:04;;;;;;;;;;;;;;;;;;6278883;28;19920;-76
2024/01/01 08:10:04;;;;;;;;;;;;;;;;;;6284614;28;19927;-76
2024/01/01 08:13:04;;;;;;;;;;;;;;;;;;6285919;28;19917;-76
2024/01/01 08:16:04;;;;;;;;;;;;;;;;;;6285415;28;19909;-76
2024/01/01 08:19:04;;;;;;;;;;;;;;;;;;6289417;28;19927;-75
2024/01/01 08:22:04;;;;;;;;;;;;;;;;;;6291516;28;19909;-76
2024/01/01 08:25:05;;;;;;;;;;;;;;;;;;6285794;28;20293;-76
2024/01/01 08:28:05;;;;;;;;;;;;;;;;;;6286285;28;19932;-76
2024/01/01 08:31:05;;;;;;;;;;;;;;;;;;6292236;28;19913;-75
2024/01/01 08:34:05;;;;;;;;;;;;;;;;;;6306200;28;19916;-75
2024/01/01 08:37:05;;;;;;;;;;;;;;;;;;6289612;28;19919;-75
2024/01/01 08:40:06;;;;;;;;;;;;;;;;;;6292858;28;19928;-75
2024/01/01 08:43:06;;;;;;;;;;;;;;;;;;6288162;28;19921;-75
2024/01/01 08:46:06;;;;;;;;;;;;;;;;;;6284819;28;20298;-76
2024/01/01 08:49:06;;;;;;;;;;;;;;;;;;6278797;28;20015;-75
2024/01/01 08:52:06;;;;;;;;;;;;;;;;;;6284450;28;19921;-75
2024/01/01 08:55:07;;;;;;;;;;;;;;;;;;6275020;28;19939;-75
2024/01/01 08:58:07;;;;;;;;;;;;;;;;;;6283034;28;20417;-75
2024/01/01 09:01:07;;;;;;;;;;;;;;;;;;6279751;28;19920;-76
2024/01/01 09:04:07;;;;;;;;;;;;;;;;;;6284346;28;20286;-76
2024/01/01 09:07:07;;;;;;;;;;;;;;;;;;6282031;28;19932;-75
2024/01/01 09:10:07;;;;;;;;;;;;;;;;;;6288999;28;19928;-75
2024/01/01 09:13:08;;;;;;;;;;;;;;;;;;6275026;28;20367;-75
2024/01/01 09:16:08;;;;;;;;;;;;;;;;;;6278010;28;20285;-75
2024/01/01 09:19:08;;;;;;;;;;;;;;;;;;6279757;28;19923;-75
2024/01/01 09:22:08;;;;;;;;;;;;;;;;;;6278718;28;20315;-76
2024/01/01 09:25:08;;;;;;;;;;;;;;;;;;6281675;28;19967;-76
2024/01/01 09:28:08;;;;;;;;;;;;;;;;;;6284102;28;19935;-75
2024/01/01 09:31:09;;;;;;;;;;;;;;;;;;6277535;28;19917;-75
2024/01/01 09:34:09;;;;;;;;;;;;;;;;;;6279179;28;19923;-75
2024/01/01 09:37:09;;;;;;;;;;;;;;;;;;6281333;28;20369;-75
2024/01/01 09:40:10;;;;;;;;;;;;;;;;;;6277270;28;20003;-75
2024/01/01 09:43:10;;;;;;;;;;;;;;;;;;6280667;28;20467;-75
2024/01/01 09:46:11;;;;;;;;;;;;;;;;;;6284016;28;19920;-75
2024/01/01 09:49:11;;;;;;;;;;;;;;;;;;6284525;28;20361;-75
2024/01/01 09:52:11;;;;;;;;;;;;;;;;;;6292003;28;19924;-75
2024/01/01 09:55:11;;;;;;;;;;;;;;;;;;6288458;28;19923;-75
2024/01/01 09:58:11;;;;;;;;;;;;;;;;;;6303303;28;19916;-76
2024/01/01 10:01:11;;;;;;;;;;;;;;;;;;6289368;28;19916;-75
2024/01/01 10:04:12;;;;;;;;;;;;;;;;;;6290962;28;19916;-75
2024/01/01 10:07:14;;;;;;;;;;;;;;;;;;6294635;28;19924;-75
2024/01/01 10:10:14;;;;;;;;;;;;;;;;;;6293542;28;19960;-75
2024/01/01 10:13:14;;;;;;;;;;;;;;;;;;6303491;28;19912;-75
2024/01/01 10:16:14;;;;;;;;;;;;;;;;;;6291903;28;20364;-75
2024/01/01 10:19:14;;;;;;;;;;;;;;;;;;6292591;28;19919;-75
2024/01/01 10:22:14;;;;;;;;;;;;;;;;;;6283460;28;20335;-76
2024/01/01 10:25:16;;;;;;;;;;;;;;;;;;6281636;28;20320;-75
2024/01/01 10:28:16;;;;;;;;;;;;;;;;;;6277732;28;19920;-75
2024/01/01 10:31:16;;;;;;;;;;;;;;;;;;6280898;28;20011;-75
2024/01/01 10:34:17;;;;;;;;;;;;;;;;;;6274620;28;19921;-75
2024/01/01 10:37:23;;;;;;;;;;;;;;;;;;6285104;28;19916;-73
2024/01/01 10:40:23;;;;;;;;;;;;;;;;;;6282076;28;20310;-75
2024/01/01 10:43:25;;;;;;;;;;;;;;;;;;6277293;28;19994;-75
2024/01/01 10:46:25;;;;;;;;;;;;;;;;;;6275001;28;19916;-75
2024/01/01 10:49:26;;;;;;;;;;;;;;;;;;6287002;28;20358;-75
2024/01/01 10:52:26;;;;;;;;;;;;;;;;;;6280586;28;19924;-75
2024/01/01 10:55:26;;;;;;;;;;;;;;;;;;6278958;28;20004;-75
2024/01/01 10:58:26;;;;;;;;;;;;;;;;;;6281531;28;19920;-75
2024/01/01 11:01:26;;;;;;;;;;;;;;;;;;6266334;28;20357;-75
2024/01/01 11:04:26;;;;;;;;;;;;;;;;;;6291746;28;19942;-75
2024/01/01 11:07:26;;;;;;;;;;;;;;;;;;6288036;28;20244;-76
2024/01/01 11:10:27;;;;;;;;;;;;;;;;;;6273438;28;20012;-73
2024/01/01 11:13:27;;;;;;;;;;;;;;;;;;6286982;28;20537;-74
2024/01/01 11:16:27;;;;;;;;;;;;;;;;;;6259281;28;20302;-74
2024/01/01 11:19:27;;;;;;;;;;;;;;;;;;6271331;28;19994;-74
2024/01/01 11:22:30;;;;;;;;;;;;;;;;;;6274369;28;19947;-74
2024/01/01 11:25:33;;;;;;;;;;;;;;;;;;6289177;28;19916;-75
2024/01/01 11:28:33;;;;;;;;;;;;;;;;;;6284906;28;20388;-75
2024/01/01 11:31:34;;;;;;;;;;;;;;;;;;6284061;28;20009;-74
2024/01/01 11:34:37;;;;;;;;;;;;;;;;;;6284707;28;19935;-75
2024/01/01 11:37:37;;;;;;;;;;;;;;;;;;6278145;28;19928;-75
2024/01/01 11:40:37;;;;;;;;;;;;;;;;;;6291822;28;20451;-74
2024/01/01 11:43:37;;;;;;;;;;;;;;;;;;6293101;28;19916;-74
2024/01/01 11:46:37;;;;;;;;;;;;;;;;;;6283341;28;19917;-76
2024/01/01 11:49:37;;;;;;;;;;;;;;;;;;6283857;28;19921;-74
2024/01/01 11:52:38;;;;;;;;;;;;;;;;;;6290251;28;20007;-74
2024/01/01 11:55:38;;;;;;;;;;;;;;;;;;6289407;28;20368;-78
2024/01/01 11:58:38;;;;;;;;;;;;;;;;;;6280703;28;19938;-78
2024/01/01 12:01:38;;;;;;;;;;;;;;;;;;6276410;28;20342;-78
2024/01/01 12:04:39;;;;;;;;;;;;;;;;;;6283488;28;19917;-78
2024/01/01 12:07:39;;;;;;;;;;;;;;;;;;6272186;28;19990;-78
2024/01/01 12:10:39;;;;;;;;;;;;;;;;;;6284126;28;20381;-78
2024/01/01 12:13:40;;;;;;;;;;;;;;;;;;6291914;28;20390;-78
2024/01/01 12:16:42;;;;;;;;;;;;;;;;;;6283600;28;20334;-78
2024/01/01 12:19:42;;;;;;;;;;;;;;;;;;6285512;28;20024;-78
2024/01/01 12:22:42;;;;;;;;;;;;;;;;;;6282842;28;19917;-78
2024/01/01 12:25:42;;;;;;;;;;;;;;;;;;6281101;28;19913;-78
2024/01/01 12:28:43;;;;;;;;;;;;;;;;;;6279465;28;19924;-78
2024/01/01 12:31:43;;;;;;;;;;;;;;;;;;6275415;28;19916;-78
2024/01/01 12:34:43;;;;;;;;;;;;;;;;;;6280820;28;19924;-78
2024/01/01 12:37:45;;;;;;;;;;;;;;;;;;6271742;28;19927;-78
2024/01/01 12:40:45;;;;;;;;;;;;;;;;;;6268817;28;20007;-77
2024/01/01 12:43:45;;;;;;;;;;;;;;;;;;6279222;28;20335;-78
2024/01/01 12:46:46;;;;;;;;;;;;;;;;;;6275555;28;19917;-77
2024/01/01 12:49:46;;;;;;;;;;;;;;;;;;6279844;28;20226;-78
2024/01/01 12:52:46;;;;;;;;;;;;;;;;;;6278755;28;20277;-78
2024/01/01 12:55:46;;;;;;;;;;;;;;;;;;6268819;28;20373;-78
2024/01/01 12:58:47;;;;;;;;;;;;;;;;;;6271459;28;20365;-78
2024/01/01 13:01:47;;;;;;;;;;;;;;;;;;6269885;28;19921;-78
2024/01/01 13:04:47;;;;;;;;;;;;;;;;;;6280708;28;19966;-77
2024/01/01 13:07:47;;;;;;;;;;;;;;;;;;6274168;28;20396;-78
2024/01/01 13:10:47;;;;;;;;;;;;;;;;;;6276207;28;19916;-78
2024/01/01 13:13:47;;;;;;;;;;;;;;;;;;6274324;28;19956;-78
2024/01/01 13:16:50;;;;;;;;;;;;;;;;;;6274329;28;19952;-78
2024/01/01 13:19:50;;;;;;;;;;;;;;;;;;6281912;28;20377;-78
2024/01/01 13:22:51;;;;;;;;;;;;;;;;;;6280463;28;20007;-78
2024/01/01 13:25:51;;;;;;;;;;;;;;;;;;6260498;28;20369;-78
2024/01/01 13:28:52;;;;;;;;;;;;;;;;;;6257325;28;19931;-78
2024/01/01 13:31:52;;;;;;;;;;;;;;;;;;6275490;28;20015;-78
2024/01/01 13:34:52;;;;;;;;;;;;;;;;;;6274830;28;20325;-77
2024/01/01 13:37:52;;;;;;;;;;;;;;;;;;6276915;28;19917;-77
2024/01/01 13:40:53;;;;;;;;;;;;;;;;;;6272978;28;20017;-78
2024/01/01 13:43:53;;;;;;;;;;;;;;;;;;6277361;28;20315;-77
2024/01/01 13:46:53;;;;;;;;;;;;;;;;;;6273552;28;19966;-79
2024/01/01 13:49:53;;;;;;;;;;;;;;;;;;6274862;28;19979;-77
2024/01/01 13:52:54;;;;;;;;;;;;;;;;;;6274514;28;20293;-78
2024/01/01 13:55:54;;;;;;;;;;;;;;;;;;6277049;28;20442;-77
2024/01/01 13:58:55;;;;;;;;;;;;;;;;;;6277875;28;20296;-77
2024/01/01 14:01:55;;;;;;;;;;;;;;;;;;6280107;28;19956;-78
2024/01/01 14:04:57;;;;;;;;;;;;;;;;;;6271070;28;20040;-78
2024/01/01 14:07:57;;;;;;;;;;;;;;;;;;6278637;28;19932;-77
2024/01/01 14:10:57;;;;;;;;;;;;;;;;;;6279157;28;20689;-77
2024/01/01 14:13:58;;;;;;;;;;;;;;;;;;6274495;28;19917;-78
2024/01/01 14:16:58;;;;;;;;;;;;;;;;;;6271932;28;19920;-76
2024/01/01 14:19:58;;;;;;;;;;;;;;;;;;6273243;28;20389;-76
2024/01/01 14:22:58;;;;;;;;;;;;;;;;;;6275060;28;19920;-76
2024/01/01 14:25:58;;;;;;;;;;;;;;;;;;6275204;28;20017;-76
2024/01/01 14:28:58;;;;;;;;;;;;;;;;;;6279931;28;20308;-76
2024/01/01 14:31:59;;;;;;;;;;;;;;;;;;6273241;28;20343;-76
2024/01/01 14:34:59;;;;;;;;;;;;;;;;;;6273379;28;19925;-76
2024/01/01 14:37:59;;;;;;;;;;;;;;;;;;6278352;28;19916;-76
2024/01/01 14:40:59;;;;;;;;;;;;;;;;;;6276368;28;20090;-77
2024/01/01 14:44:00;;;;;;;;;;;;;;;;;;6273637;28;19923;-76
2024/01/01 14:47:00;;;;;;;;;;;;;;;;;;6273210;28;19943;-76
2024/01/01 14:50:00;;;;;;;;;;;;;;;;;;6277253;28;19936;-76
2024/01/01 14:53:00;;;;;;;;;;;;;;;;;;6278590;28;19920;-76
2024/01/01 14:56:00;;;;;;;;;;;;;;;;;;6277231;28;19916;-77
2024/01/01 14:59:01;;;;;;;;;;;;;;;;;;6274868;28;19916;-76
2024/01/01 15:02:01;;;;;;;;;;;;;;;;;;6267745;28;20285;-76
2024/01/01 15:05:02;;;;;;;;;;;;;;;;;;6273260;28;19954;-76
2024/01/01 15:08:04;;;;;;;;;;;;;;;;;;6275110;28;20308;-76
2024/01/01 15:11:09;;;;;;;;;;;;;;;;;;6273793;28;22079;-76
2024/01/01 15:14:09;;;;;;;;;;;;;;;;;;6283970;28;19916;-76
2024/01/01 15:17:09;;;;;;;;;;;;;;;;;;6273136;28;19923;-76
2024/01/01 15:20:10;;;;;;;;;;;;;;;;;;6274649;28;20664;-76
2024/01/01 15:23:11;;;;;;;;;;;;;;;;;;6273982;28;19923;-76
2024/01/01 15:26:12;;;;;;;;;;;;;;;;;;6275517;28;20301;-76
2024/01/01 15:29:12;;;;;;;;;;;;;;;;;;6271283;28;19946;-76
2024/01/01 15:32:12;;;;;;;;;;;;;;;;;;6274893;28;19920;-75
2024/01/01 15:35:12;;;;;;;;;;;;;;;;;;6275348;28;19917;-75
2024/01/01 15:38:12;;;;;;;;;;;;;;;;;;6269089;28;19923;-76
2024/01/01 15:41:13;;;;;;;;;;;;;;;;;;6273943;28;20304;-75
2024/01/01 15:44:13;;;;;;;;;;;;;;;;;;6270342;28;20059;-75
2024/01/01 15:47:13;;;;;;;;;;;;;;;;;;6270849;28;20072;-76
2024/01/01 15:50:13;;;;;;;;;;;;;;;;;;6272765;28;20292;-76
2024/01/01 15:53:13;;;;;;;;;;;;;;;;;;6275585;28;19962;-75
2024/01/01 15:56:14;;;;;;;;;;;;;;;;;;6275330;28;19917;-76
2024/01/01 15:59:14;;;;;;;;;;;;;;;;;;6270675;28;19919;-75
2024/01/01 16:02:14;;;;;;;;;;;;;;;;;;6271600;28;20442;-75
2024/01/01 16:05:14;;;;;;;;;;;;;;;;;;6276215;28;20250;-75
2024/01/01 16:08:14;;;;;;;;;;;;;;;;;;6276675;28;20303;-75
2024/01/01 16:11:15;;;;;;;;;;;;;;;;;;6275018;28;19913;-76
2024/01/01 16:14:15;;;;;;;;;;;;;;;;;;6275059;28;19913;-75
2024/01/01 16:17:15;;;;;;;;;;;;;;;;;;6269974;28;20259;-76
2024/01/01 16:20:15;;;;;;;;;;;;;;;;;;6273032;28;19912;-76
2024/01/01 16:23:15;;;;;;;;;;;;;;;;;;6270489;28;20262;-75
2024/01/01 16:26:16;;;;;;;;;;;;;;;;;;6273330;28;20265;-76
2024/01/01 16:29:16;;;;;;;;;;;;;;;;;;6272470;28;19921;-75
2024/01/01 16:32:16;;;;;;;;;;;;;;;;;;6274864;28;20313;-75
2024/01/01 16:35:17;;;;;;;;;;;;;;;;;;6274070;28;19920;-76
2024/01/01 16:38:17;;;;;;;;;;;;;;;;;;6281322;28;20377;-75
2024/01/01 16:41:17;;;;;;;;;;;;;;;;;;6280439;28;19956;-75
2024/01/01 16:44:17;;;;;;;;;;;;;;;;;;6275448;28;20327;-75
2024/01/01 16:47:17;;;;;;;;;;;;;;;;;;6278176;28;21797;-77
2024/01/01 16:50:18;;;;;;;;;;;;;;;;;;6277980;28;19928;-77
2024/01/01 16:53:18;;;;;;;;;;;;;;;;;;6277349;28;19916;-77
2024/01/01 16:56:18;;;;;;;;;;;;;;;;;;6279869;28;19924;-77
2024/01/01 16:59:18;;;;;;;;;;;;;;;;;;6274076;28;19921;-77
2024/01/01 17:02:18;;;;;;;;;;;;;;;;;;6281112;28;19916;-77
2024/01/01 17:05:18;;;;;;;;;;;;;;;;;;6276807;28;19943;-77
2024/01/01 17:08:20;;;;;;;;;;;;;;;;;;6276838;28;19932;-77
2024/01/01 17:11:20;;;;;;;;;;;;;;;;;;6277652;28;20023;-77
2024/01/01 17:14:20;;;;;;;;;;;;;;;;;;6275846;28;19998;-77
2024/01/01 17:17:20;;;;;;;;;;;;;;;;;;6277495;28;19921;-77
2024/01/01 17:20:20;;;;;;;;;;;;;;;;;;6275714;28;19921;-77
2024/01/01 17:23:20;;;;;;;;;;;;;;;;;;6276350;28;19921;-77
2024/01/01 17:26:21;;;;;;;;;;;;;;;;;;6274128;28;19917;-76
2024/01/01 17:29:21;;;;;;;;;;;;;;;;;;6274525;28;19935;-75
2024/01/01 17:32:23;;;;;;;;;;;;;;;;;;6277518;28;19916;-76
2024/01/01 17:35:23;;;;;;;;;;;;;;;;;;6277395;28;20292;-76
2024/01/01 17:38:23;;;;;;;;;;;;;;;;;;6274909;28;20385;-76
2024/01/01 17:41:23;;;;;;;;;;;;;;;;;;6261755;28;20380;-76
2024/01/01 17:44:23;;;;;;;;;;;;;;;;;;6272747;28;20432;-76
2024/01/01 17:47:23;;;;;;;;;;;;;;;;;;6276994;28;20725;-76
2024/01/01 17:50:25;;;;;;;;;;;;;;;;;;6278111;28;20380;-76
2024/01/01 17:53:25;;;;;;;;;;;;;;;;;;6273913;28;19920;-76
2024/01/01 17:56:25;;;;;;;;;;;;;;;;;;6271457;28;19947;-76
2024/01/01 17:59:25;;;;;;;;;;;;;;;;;;6274385;28;19917;-76
2024/01/01 18:02:26;;;;;;;;;;;;;;;;;;6270136;28;20448;-76
2024/01/01 18:05:26;;;;;;;;;;;;;;;;;;6269852;28;20431;-76
2024/01/01 18:08:26;;;;;;;;;;;;;;;;;;6272064;28;19986;-77
2024/01/01 18:11:26;;;;;;;;;;;;;;;;;;6275442;28;19920;-76
2024/01/01 18:14:26;;;;;;;;;;;;;;;;;;6272419;28;19921;-76
2024/01/01 18:17:26;;;;;;;;;;;;;;;;;;5925273;28;10000460;-77
2024/01/01 18:20:26;;;;;;;;;;;;;;;;;;6280428;28;19913;-76
2024/01/01 18:23:27;;;;;;;;;;;;;;;;;;6279829;28;19974;-77
2024/01/01 18:26:28;;;;;;;;;;;;;;;;;;6273100;28;20292;-76
2024/01/01 18:29:29;;;;;;;;;;;;;;;;;;6274716;28;20006;-76
2024/01/01 18:32:29;;;;;;;;;;;;;;;;;;6279023;28;19913;-76
2024/01/01 18:35:29;;;;;;;;;;;;;;;;;;6275972;28;19951;-76
2024/01/01 18:38:30;;;;;;;;;;;;;;;;;;6277037;28;19955;-76
2024/01/01 18:41:30;;;;;;;;;;;;;;;;;;6273895;28;19913;-76
2024/01/01 18:44:30;;;;;;;;;;;;;;;;;;6272574;28;19920;-76
2024/01/01 18:47:30;;;;;;;;;;;;;;;;;;6270577;28;20020;-76
2024/01/01 18:50:31;;;;;;;;;;;;;;;;;;6268575;28;20019;-76
2024/01/01 18:53:31;;;;;;;;;;;;;;;;;;6273471;28;20055;-76
2024/01/01 18:56:31;;;;;;;;;;;;;;;;;;6266474;28;19991;-76
2024/01/01 18:59:33;;;;;;;;;;;;;;;;;;6274612;28;20683;-76
2024/01/01 19:02:33;;;;;;;;;;;;;;;;;;6258828;28;20400;-76
2024/01/01 19:05:35;;;;;;;;;;;;;;;;;;6272354;28;19917;-76
2024/01/01 19:08:35;;;;;;;;;;;;;;;;;;6271169;28;19939;-76
2024/01/01 19:11:35;;;;;;;;;;;;;;;;;;6271688;28;19920;-75
2024/01/01 19:14:35;;;;;;;;;;;;;;;;;;6269289;28;19940;-76
2024/01/01 19:17:35;;;;;;;;;;;;;;;;;;6271715;28;19944;-75
2024/01/01 19:20:37;;;;;;;;;;;;;;;;;;6272462;28;19979;-76
2024/01/01 19:23:38;;;;;;;;;;;;;;;;;;6270675;28;19916;-75
2024/01/01 19:26:38;;;;;;;;;;;;;;;;;;6252715;28;20262;-76
2024/01/01 19:29:38;;;;;;;;;;;;;;;;;;6257334;28;20406;-76
2024/01/01 19:32:39;;;;;;;;;;;;;;;;;;6270924;28;19916;-76
2024/01/01 19:35:39;;;;;;;;;;;;;;;;;;6270926;28;19925;-76
2024/01/01 19:38:39;;;;;;;;;;;;;;;;;;6273021;28;20405;-76
2024/01/01 19:41:39;;;;;;;;;;;;;;;;;;6272462;28;20631;-76
2024/01/01 19:44:39;;;;;;;;;;;;;;;;;;6275475;28;19921;-76
2024/01/01 19:47:41;;;;;;;;;;;;;;;;;;6271427;28;19920;-76
2024/01/01 19:50:41;;;;;;;;;;;;;;;;;;6276767;28;19916;-76
2024/01/01 19:53:42;;;;;;;;;;;;;;;;;;6276259;28;19954;-76
2024/01/01 19:56:42;;;;;;;;;;;;;;;;;;6271864;28;19916;-76
2024/01/01 19:59:42;;;;;;;;;;;;;;;;;;6269127;28;19925;-75
2024/01/01 20:02:43;;;;;;;;;;;;;;;;;;6271830;28;19916;-75
2024/01/01 20:05:43;;;;;;;;;;;;;;;;;;6272030;28;20377;-76
2024/01/01 20:08:43;;;;;;;;;;;;;;;;;;6254253;28;19928;-75
2024/01/01 20:11:44;;;;;;;;;;;;;;;;;;6262277;28;19924;-76
2024/01/01 20:14:44;;;;;;;;;;;;;;;;;;6270939;28;19921;-76
2024/01/01 20:17:44;;;;;;;;;;;;;;;;;;6277012;28;20332;-75
2024/01/01 20:20:44;;;;;;;;;;;;;;;;;;6276420;28;20293;-75
2024/01/01 20:23:44;;;;;;;;;;;;;;;;;;6277816;28;20251;-76
2024/01/01 20:26:44;;;;;;;;;;;;;;;;;;6281691;28;20371;-75
2024/01/01 20:29:45;;;;;;;;;;;;;;;;;;6272629;28;19925;-76